sensor_id;sensor_type;location;lat;lon;timestamp;P1;durP1;ratioP1;P2;durP2;ratioP2
14316;SDS011;7242;50.858;6.586;2023-06-22T00:00:38;4.00;;;2.90;;
14316;SDS011;7242;50.858;6.586;2023-06-22T00:03:42;3.37;;;3.00;;
14316;SDS011;7242;50.858;6.586;2023-06-22T00:06:43;4.20;;;2.87;;
14316;SDS011;7242;50.858;6.586;2023-06-22T00:09:43;4.73;;;2.80;;
14316;SDS011;7242;50.858;6.586;2023-06-22T00:12:44;8.67;;;2.80;;
14316;SDS011;7242;50.858;6.586;2023-06-22T00:15:45;6.47;;;2.90;;
14316;SDS011;7242;50.858;6.586;2023-06-22T00:18:46;3.30;;;2.70;;
14316;SDS011;7242;50.858;6.586;2023-06-22T00:21:47;6.10;;;2.90;;
14316;SDS011;7242;50.858;6.586;2023-06-22T00:24:52;3.57;;;2.60;;
14316;SDS011;7242;50.858;6.586;2023-06-22T00:27:53;4.33;;;2.60;;
14316;SDS011;7242;50.858;6.586;2023-06-22T00:30:54;4.50;;;2.63;;
14316;SDS011;7242;50.858;6.586;2023-06-22T00:33:55;4.13;;;2.63;;
14316;SDS011;7242;50.858;6.586;2023-06-22T00:36:56;3.23;;;2.40;;
14316;SDS011;7242;50.858;6.586;2023-06-22T00:39:57;3.70;;;2.63;;
14316;SDS011;7242;50.858;6.586;2023-06-22T00:42:58;4.63;;;3.00;;
14316;SDS011;7242;50.858;6.586;2023-06-22T00:45:59;5.67;;;2.57;;
14316;SDS011;7242;50.858;6.586;2023-06-22T00:49:00;2.93;;;2.30;;
14316;SDS011;7242;50.858;6.586;2023-06-22T00:52:02;5.60;;;2.63;;
14316;SDS011;7242;50.858;6.586;2023-06-22T00:55:03;4.13;;;2.40;;
14316;SDS011;7242;50.858;6.586;2023-06-22T00:58:07;3.37;;;2.67;;
14316;SDS011;7242;50.858;6.586;2023-06-22T01:01:10;2.90;;;2.43;;
14316;SDS011;7242;50.858;6.586;2023-06-22T01:04:11;4.07;;;2.50;;
14316;SDS011;7242;50.858;6.586;2023-06-22T01:10:35;4.93;;;2.80;;
14316;SDS011;7242;50.858;6.586;2023-06-22T01:16:44;3.57;;;2.90;;
14316;SDS011;7242;50.858;6.586;2023-06-22T01:19:49;4.37;;;2.70;;
14316;SDS011;7242;50.858;6.586;2023-06-22T01:26:12;3.47;;;2.70;;
14316;SDS011;7242;50.858;6.586;2023-06-22T01:29:15;3.63;;;2.83;;
14316;SDS011;7242;50.858;6.586;2023-06-22T01:32:16;4.33;;;3.00;;
14316;SDS011;7242;50.858;6.586;2023-06-22T01:35:18;3.57;;;2.93;;
14316;SDS011;7242;50.858;6.586;2023-06-22T01:38:21;4.00;;;3.00;;
14316;SDS011;7242;50.858;6.586;2023-06-22T01:41:24;4.27;;;2.80;;
14316;SDS011;7242;50.858;6.586;2023-06-22T01:44:25;5.47;;;3.00;;
14316;SDS011;7242;50.858;6.586;2023-06-22T01:47:27;5.17;;;3.10;;
14316;SDS011;7242;50.858;6.586;2023-06-22T01:50:28;7.30;;;2.90;;
14316;SDS011;7242;50.858;6.586;2023-06-22T01:53:30;5.13;;;3.10;;
14316;SDS011;7242;50.858;6.586;2023-06-22T01:56:30;9.33;;;3.30;;
14316;SDS011;7242;50.858;6.586;2023-06-22T01:59:37;7.07;;;3.33;;
14316;SDS011;7242;50.858;6.586;2023-06-22T02:02:47;7.50;;;3.30;;
14316;SDS011;7242;50.858;6.586;2023-06-22T02:05:51;5.13;;;3.10;;
14316;SDS011;7242;50.858;6.586;2023-06-22T02:08:59;6.80;;;3.20;;
14316;SDS011;7242;50.858;6.586;2023-06-22T02:12:00;6.90;;;3.13;;
14316;SDS011;7242;50.858;6.586;2023-06-22T02:15:03;4.70;;;3.20;;
14316;SDS011;7242;50.858;6.586;2023-06-22T02:18:04;5.27;;;3.20;;
14316;SDS011;7242;50.858;6.586;2023-06-22T02:21:05;4.40;;;3.20;;
14316;SDS011;7242;50.858;6.586;2023-06-22T02:24:07;3.73;;;2.80;;
14316;SDS011;7242;50.858;6.586;2023-06-22T02:27:08;4.10;;;2.80;;
14316;SDS011;7242;50.858;6.586;2023-06-22T02:30:10;4.57;;;3.00;;
14316;SDS011;7242;50.858;6.586;2023-06-22T02:33:13;4.30;;;2.87;;
14316;SDS011;7242;50.858;6.586;2023-06-22T02:36:14;4.23;;;2.83;;
14316;SDS011;7242;50.858;6.586;2023-06-22T02:39:15;4.30;;;2.90;;
14316;SDS011;7242;50.858;6.586;2023-06-22T02:42:23;5.37;;;3.10;;
14316;SDS011;7242;50.858;6.586;2023-06-22T02:45:24;5.47;;;3.07;;
14316;SDS011;7242;50.858;6.586;2023-06-22T02:48:25;4.77;;;3.10;;
14316;SDS011;7242;50.858;6.586;2023-06-22T02:51:26;7.23;;;3.40;;
14316;SDS011;7242;50.858;6.586;2023-06-22T02:54:27;8.57;;;3.53;;
14316;SDS011;7242;50.858;6.586;2023-06-22T02:57:29;6.37;;;3.67;;
14316;SDS011;7242;50.858;6.586;2023-06-22T03:00:30;9.13;;;3.20;;
14316;SDS011;7242;50.858;6.586;2023-06-22T03:03:31;6.83;;;3.50;;
14316;SDS011;7242;50.858;6.586;2023-06-22T03:06:32;10.13;;;3.40;;
14316;SDS011;7242;50.858;6.586;2023-06-22T03:09:34;6.10;;;3.30;;
14316;SDS011;7242;50.858;6.586;2023-06-22T03:12:35;7.10;;;3.17;;
14316;SDS011;7242;50.858;6.586;2023-06-22T03:15:36;7.10;;;3.13;;
14316;SDS011;7242;50.858;6.586;2023-06-22T03:18:37;5.93;;;3.50;;
14316;SDS011;7242;50.858;6.586;2023-06-22T03:21:39;6.13;;;3.43;;
14316;SDS011;7242;50.858;6.586;2023-06-22T03:24:40;4.83;;;3.30;;
14316;SDS011;7242;50.858;6.586;2023-06-22T03:27:41;4.90;;;3.23;;
14316;SDS011;7242;50.858;6.586;2023-06-22T03:30:44;5.70;;;3.80;;
14316;SDS011;7242;50.858;6.586;2023-06-22T03:33:45;4.83;;;3.40;;
14316;SDS011;7242;50.858;6.586;2023-06-22T03:36:45;6.43;;;3.67;;
14316;SDS011;7242;50.858;6.586;2023-06-22T03:39:46;6.30;;;3.80;;
14316;SDS011;7242;50.858;6.586;2023-06-22T03:42:49;4.83;;;3.77;;
14316;SDS011;7242;50.858;6.586;2023-06-22T03:45:49;6.53;;;4.00;;
14316;SDS011;7242;50.858;6.586;2023-06-22T03:48:50;6.47;;;3.60;;
14316;SDS011;7242;50.858;6.586;2023-06-22T03:51:51;7.70;;;3.60;;
14316;SDS011;7242;50.858;6.586;2023-06-22T03:54:52;4.23;;;3.43;;
14316;SDS011;7242;50.858;6.586;2023-06-22T03:57:53;3.87;;;3.17;;
14316;SDS011;7242;50.858;6.586;2023-06-22T04:00:56;5.30;;;3.30;;
14316;SDS011;7242;50.858;6.586;2023-06-22T04:03:57;4.63;;;3.40;;
14316;SDS011;7242;50.858;6.586;2023-06-22T04:06:58;3.60;;;3.03;;
14316;SDS011;7242;50.858;6.586;2023-06-22T04:09:59;5.50;;;3.23;;
14316;SDS011;7242;50.858;6.586;2023-06-22T04:13:00;5.80;;;3.67;;
14316;SDS011;7242;50.858;6.586;2023-06-22T04:16:01;6.90;;;3.83;;
14316;SDS011;7242;50.858;6.586;2023-06-22T04:19:02;5.83;;;3.70;;
14316;SDS011;7242;50.858;6.586;2023-06-22T04:22:04;9.83;;;3.83;;
14316;SDS011;7242;50.858;6.586;2023-06-22T04:25:07;7.07;;;3.80;;
14316;SDS011;7242;50.858;6.586;2023-06-22T04:28:08;5.37;;;3.57;;
14316;SDS011;7242;50.858;6.586;2023-06-22T04:31:12;7.57;;;3.60;;
14316;SDS011;7242;50.858;6.586;2023-06-22T04:34:13;6.30;;;3.80;;
14316;SDS011;7242;50.858;6.586;2023-06-22T04:37:16;5.57;;;3.73;;
14316;SDS011;7242;50.858;6.586;2023-06-22T04:40:17;7.70;;;4.10;;
14316;SDS011;7242;50.858;6.586;2023-06-22T04:43:17;5.97;;;3.87;;
14316;SDS011;7242;50.858;6.586;2023-06-22T04:46:19;7.77;;;4.03;;
14316;SDS011;7242;50.858;6.586;2023-06-22T04:49:20;6.47;;;3.80;;
14316;SDS011;7242;50.858;6.586;2023-06-22T04:52:22;6.83;;;4.27;;
14316;SDS011;7242;50.858;6.586;2023-06-22T04:55:24;5.30;;;4.20;;
14316;SDS011;7242;50.858;6.586;2023-06-22T04:58:25;6.73;;;4.20;;
14316;SDS011;7242;50.858;6.586;2023-06-22T05:01:29;6.23;;;4.13;;
14316;SDS011;7242;50.858;6.586;2023-06-22T05:04:31;6.57;;;4.20;;
14316;SDS011;7242;50.858;6.586;2023-06-22T05:07:35;7.57;;;4.30;;
14316;SDS011;7242;50.858;6.586;2023-06-22T05:10:36;5.73;;;4.37;;
14316;SDS011;7242;50.858;6.586;2023-06-22T05:13:37;6.47;;;4.57;;
14316;SDS011;7242;50.858;6.586;2023-06-22T05:16:38;6.97;;;4.87;;
14316;SDS011;7242;50.858;6.586;2023-06-22T05:19:40;6.03;;;4.50;;
14316;SDS011;7242;50.858;6.586;2023-06-22T05:22:48;9.50;;;4.87;;
14316;SDS011;7242;50.858;6.586;2023-06-22T05:25:48;9.97;;;4.90;;
14316;SDS011;7242;50.858;6.586;2023-06-22T05:28:49;7.80;;;4.70;;
14316;SDS011;7242;50.858;6.586;2023-06-22T05:31:50;5.93;;;4.73;;
14316;SDS011;7242;50.858;6.586;2023-06-22T05:34:51;7.93;;;4.13;;
14316;SDS011;7242;50.858;6.586;2023-06-22T05:37:52;5.70;;;5.13;;
14316;SDS011;7242;50.858;6.586;2023-06-22T05:40:53;5.97;;;4.40;;
14316;SDS011;7242;50.858;6.586;2023-06-22T05:43:54;8.23;;;4.87;;
14316;SDS011;7242;50.858;6.586;2023-06-22T05:46:54;6.77;;;4.50;;
14316;SDS011;7242;50.858;6.586;2023-06-22T05:49:55;6.30;;;4.67;;
14316;SDS011;7242;50.858;6.586;2023-06-22T05:52:56;6.10;;;4.50;;
14316;SDS011;7242;50.858;6.586;2023-06-22T05:55:57;7.07;;;4.43;;
14316;SDS011;7242;50.858;6.586;2023-06-22T05:58:58;12.57;;;6.17;;
14316;SDS011;7242;50.858;6.586;2023-06-22T06:01:59;11.03;;;5.20;;
14316;SDS011;7242;50.858;6.586;2023-06-22T06:04:59;7.30;;;4.40;;
14316;SDS011;7242;50.858;6.586;2023-06-22T06:08:03;6.63;;;4.90;;
14316;SDS011;7242;50.858;6.586;2023-06-22T06:11:05;12.40;;;5.50;;
14316;SDS011;7242;50.858;6.586;2023-06-22T06:14:06;9.43;;;5.43;;
14316;SDS011;7242;50.858;6.586;2023-06-22T06:17:07;7.53;;;4.87;;
14316;SDS011;7242;50.858;6.586;2023-06-22T06:20:08;6.67;;;4.67;;
14316;SDS011;7242;50.858;6.586;2023-06-22T06:23:10;9.47;;;5.40;;
14316;SDS011;7242;50.858;6.586;2023-06-22T06:26:10;9.17;;;5.33;;
14316;SDS011;7242;50.858;6.586;2023-06-22T06:29:11;9.97;;;5.50;;
14316;SDS011;7242;50.858;6.586;2023-06-22T06:32:12;6.40;;;5.60;;
14316;SDS011;7242;50.858;6.586;2023-06-22T06:35:13;7.97;;;5.43;;
14316;SDS011;7242;50.858;6.586;2023-06-22T06:38:16;14.27;;;5.60;;
14316;SDS011;7242;50.858;6.586;2023-06-22T06:41:16;8.77;;;5.27;;
14316;SDS011;7242;50.858;6.586;2023-06-22T06:44:17;9.77;;;5.00;;
14316;SDS011;7242;50.858;6.586;2023-06-22T06:47:18;8.53;;;5.47;;
14316;SDS011;7242;50.858;6.586;2023-06-22T06:50:19;7.80;;;5.50;;
14316;SDS011;7242;50.858;6.586;2023-06-22T06:53:20;6.93;;;4.70;;
14316;SDS011;7242;50.858;6.586;2023-06-22T06:56:21;7.13;;;5.10;;
14316;SDS011;7242;50.858;6.586;2023-06-22T06:59:22;6.30;;;4.77;;
14316;SDS011;7242;50.858;6.586;2023-06-22T07:02:23;8.97;;;6.17;;
14316;SDS011;7242;50.858;6.586;2023-06-22T07:05:24;8.60;;;5.60;;
14316;SDS011;7242;50.858;6.586;2023-06-22T07:08:25;8.53;;;5.33;;
14316;SDS011;7242;50.858;6.586;2023-06-22T07:11:26;10.23;;;5.13;;
14316;SDS011;7242;50.858;6.586;2023-06-22T07:14:27;9.60;;;6.60;;
14316;SDS011;7242;50.858;6.586;2023-06-22T07:17:28;9.77;;;5.45;;
14316;SDS011;7242;50.858;6.586;2023-06-22T07:20:29;9.73;;;5.22;;
14316;SDS011;7242;50.858;6.586;2023-06-22T07:23:30;8.18;;;5.07;;
14316;SDS011;7242;50.858;6.586;2023-06-22T07:26:30;9.13;;;5.60;;
14316;SDS011;7242;50.858;6.586;2023-06-22T07:29:31;7.72;;;5.40;;
14316;SDS011;7242;50.858;6.586;2023-06-22T07:32:33;6.07;;;5.20;;
14316;SDS011;7242;50.858;6.586;2023-06-22T07:35:33;7.38;;;5.32;;
14316;SDS011;7242;50.858;6.586;2023-06-22T07:38:34;7.93;;;6.05;;
14316;SDS011;7242;50.858;6.586;2023-06-22T07:41:35;8.50;;;6.10;;
14316;SDS011;7242;50.858;6.586;2023-06-22T07:44:36;8.40;;;5.95;;
14316;SDS011;7242;50.858;6.586;2023-06-22T07:47:36;7.72;;;5.07;;
14316;SDS011;7242;50.858;6.586;2023-06-22T07:50:37;6.03;;;5.45;;
14316;SDS011;7242;50.858;6.586;2023-06-22T07:53:41;7.65;;;5.70;;
14316;SDS011;7242;50.858;6.586;2023-06-22T07:56:42;6.90;;;5.90;;
14316;SDS011;7242;50.858;6.586;2023-06-22T07:59:43;7.03;;;5.18;;
14316;SDS011;7242;50.858;6.586;2023-06-22T08:02:45;7.85;;;5.20;;
14316;SDS011;7242;50.858;6.586;2023-06-22T08:05:46;5.40;;;4.88;;
14316;SDS011;7242;50.858;6.586;2023-06-22T08:08:49;9.25;;;7.25;;
14316;SDS011;7242;50.858;6.586;2023-06-22T08:11:49;9.25;;;6.85;;
14316;SDS011;7242;50.858;6.586;2023-06-22T08:14:50;8.45;;;7.60;;
14316;SDS011;7242;50.858;6.586;2023-06-22T08:17:50;6.43;;;5.32;;
14316;SDS011;7242;50.858;6.586;2023-06-22T08:20:52;6.28;;;5.78;;
14316;SDS011;7242;50.858;6.586;2023-06-22T08:23:53;9.00;;;6.78;;
14316;SDS011;7242;50.858;6.586;2023-06-22T08:26:53;11.43;;;8.27;;
14316;SDS011;7242;50.858;6.586;2023-06-22T08:29:54;8.82;;;7.13;;
14316;SDS011;7242;50.858;6.586;2023-06-22T08:32:58;9.13;;;6.82;;
14316;SDS011;7242;50.858;6.586;2023-06-22T08:35:59;11.60;;;7.10;;
14316;SDS011;7242;50.858;6.586;2023-06-22T08:39:00;10.45;;;7.35;;
14316;SDS011;7242;50.858;6.586;2023-06-22T08:42:02;8.55;;;7.68;;
14316;SDS011;7242;50.858;6.586;2023-06-22T08:45:04;7.85;;;6.13;;
14316;SDS011;7242;50.858;6.586;2023-06-22T08:48:05;8.55;;;7.00;;
14316;SDS011;7242;50.858;6.586;2023-06-22T08:51:06;7.60;;;6.25;;
14316;SDS011;7242;50.858;6.586;2023-06-22T08:54:06;7.57;;;6.20;;
14316;SDS011;7242;50.858;6.586;2023-06-22T08:57:07;7.97;;;6.82;;
14316;SDS011;7242;50.858;6.586;2023-06-22T09:00:08;10.40;;;6.40;;
14316;SDS011;7242;50.858;6.586;2023-06-22T09:03:16;8.73;;;6.30;;
14316;SDS011;7242;50.858;6.586;2023-06-22T09:06:16;7.55;;;6.65;;
14316;SDS011;7242;50.858;6.586;2023-06-22T09:09:17;9.25;;;6.65;;
14316;SDS011;7242;50.858;6.586;2023-06-22T09:12:20;10.90;;;7.20;;
14316;SDS011;7242;50.858;6.586;2023-06-22T09:15:25;9.00;;;7.10;;
14316;SDS011;7242;50.858;6.586;2023-06-22T09:18:26;8.53;;;7.73;;
14316;SDS011;7242;50.858;6.586;2023-06-22T09:21:27;8.63;;;7.77;;
14316;SDS011;7242;50.858;6.586;2023-06-22T09:24:28;8.30;;;6.90;;
14316;SDS011;7242;50.858;6.586;2023-06-22T09:27:29;10.03;;;7.57;;
14316;SDS011;7242;50.858;6.586;2023-06-22T09:30:29;10.47;;;8.90;;
14316;SDS011;7242;50.858;6.586;2023-06-22T09:33:30;8.23;;;7.43;;
14316;SDS011;7242;50.858;6.586;2023-06-22T09:36:31;9.07;;;8.13;;
14316;SDS011;7242;50.858;6.586;2023-06-22T09:39:32;7.72;;;7.03;;
14316;SDS011;7242;50.858;6.586;2023-06-22T09:42:33;7.47;;;6.78;;
14316;SDS011;7242;50.858;6.586;2023-06-22T09:45:34;7.53;;;6.57;;
14316;SDS011;7242;50.858;6.586;2023-06-22T09:48:35;7.93;;;7.13;;
14316;SDS011;7242;50.858;6.586;2023-06-22T09:51:36;7.07;;;6.40;;
14316;SDS011;7242;50.858;6.586;2023-06-22T09:54:36;8.43;;;6.77;;
14316;SDS011;7242;50.858;6.586;2023-06-22T09:57:37;8.03;;;7.33;;
14316;SDS011;7242;50.858;6.586;2023-06-22T10:00:38;7.83;;;7.10;;
14316;SDS011;7242;50.858;6.586;2023-06-22T10:03:41;7.43;;;6.73;;
14316;SDS011;7242;50.858;6.586;2023-06-22T10:06:42;8.27;;;7.57;;
14316;SDS011;7242;50.858;6.586;2023-06-22T10:09:43;10.00;;;8.20;;
14316;SDS011;7242;50.858;6.586;2023-06-22T10:12:47;10.00;;;8.47;;
14316;SDS011;7242;50.858;6.586;2023-06-22T10:15:54;9.40;;;7.53;;
14316;SDS011;7242;50.858;6.586;2023-06-22T10:18:56;11.13;;;8.97;;
14316;SDS011;7242;50.858;6.586;2023-06-22T10:21:57;8.93;;;8.10;;
14316;SDS011;7242;50.858;6.586;2023-06-22T10:24:58;10.40;;;8.60;;
14316;SDS011;7242;50.858;6.586;2023-06-22T10:27:58;11.17;;;9.47;;
14316;SDS011;7242;50.858;6.586;2023-06-22T10:30:59;13.57;;;10.70;;
14316;SDS011;7242;50.858;6.586;2023-06-22T10:34:00;16.77;;;11.10;;
14316;SDS011;7242;50.858;6.586;2023-06-22T10:37:01;13.80;;;12.33;;
14316;SDS011;7242;50.858;6.586;2023-06-22T10:40:02;11.87;;;10.53;;
14316;SDS011;7242;50.858;6.586;2023-06-22T10:43:04;11.47;;;10.00;;
14316;SDS011;7242;50.858;6.586;2023-06-22T10:46:05;13.73;;;12.03;;
14316;SDS011;7242;50.858;6.586;2023-06-22T10:49:06;14.13;;;12.10;;
14316;SDS011;7242;50.858;6.586;2023-06-22T10:52:07;13.37;;;11.30;;
14316;SDS011;7242;50.858;6.586;2023-06-22T10:55:09;13.00;;;11.70;;
14316;SDS011;7242;50.858;6.586;2023-06-22T10:58:10;15.93;;;12.53;;
14316;SDS011;7242;50.858;6.586;2023-06-22T11:01:11;15.23;;;12.87;;
14316;SDS011;7242;50.858;6.586;2023-06-22T11:04:12;14.20;;;12.80;;
14316;SDS011;7242;50.858;6.586;2023-06-22T11:07:13;14.40;;;12.90;;
14316;SDS011;7242;50.858;6.586;2023-06-22T11:10:16;14.13;;;12.57;;
14316;SDS011;7242;50.858;6.586;2023-06-22T11:13:16;15.10;;;13.67;;
14316;SDS011;7242;50.858;6.586;2023-06-22T11:16:17;14.30;;;12.80;;
14316;SDS011;7242;50.858;6.586;2023-06-22T11:19:18;15.70;;;13.13;;
14316;SDS011;7242;50.858;6.586;2023-06-22T11:22:19;14.23;;;12.73;;
14316;SDS011;7242;50.858;6.586;2023-06-22T11:25:20;17.00;;;15.20;;
14316;SDS011;7242;50.858;6.586;2023-06-22T11:28:20;16.03;;;14.47;;
14316;SDS011;7242;50.858;6.586;2023-06-22T11:31:21;15.23;;;13.63;;
14316;SDS011;7242;50.858;6.586;2023-06-22T11:34:22;14.70;;;13.20;;
14316;SDS011;7242;50.858;6.586;2023-06-22T11:37:23;13.70;;;11.80;;
14316;SDS011;7242;50.858;6.586;2023-06-22T11:40:24;14.33;;;12.90;;
14316;SDS011;7242;50.858;6.586;2023-06-22T11:43:25;13.53;;;12.10;;
14316;SDS011;7242;50.858;6.586;2023-06-22T11:46:26;14.53;;;11.77;;
14316;SDS011;7242;50.858;6.586;2023-06-22T11:49:27;12.43;;;11.17;;
14316;SDS011;7242;50.858;6.586;2023-06-22T11:52:27;10.67;;;9.57;;
14316;SDS011;7242;50.858;6.586;2023-06-22T11:55:29;11.90;;;10.80;;
14316;SDS011;7242;50.858;6.586;2023-06-22T11:58:29;11.10;;;9.93;;
14316;SDS011;7242;50.858;6.586;2023-06-22T12:01:30;11.63;;;10.43;;
14316;SDS011;7242;50.858;6.586;2023-06-22T12:04:33;18.00;;;14.30;;
14316;SDS011;7242;50.858;6.586;2023-06-22T12:07:34;16.17;;;14.20;;
14316;SDS011;7242;50.858;6.586;2023-06-22T12:10:35;14.07;;;12.50;;
14316;SDS011;7242;50.858;6.586;2023-06-22T12:13:35;14.03;;;12.60;;
14316;SDS011;7242;50.858;6.586;2023-06-22T12:16:36;13.67;;;12.33;;
14316;SDS011;7242;50.858;6.586;2023-06-22T12:19:38;13.20;;;11.90;;
14316;SDS011;7242;50.858;6.586;2023-06-22T12:22:38;12.80;;;11.50;;
14316;SDS011;7242;50.858;6.586;2023-06-22T12:25:39;12.67;;;11.40;;
14316;SDS011;7242;50.858;6.586;2023-06-22T12:28:40;11.93;;;10.93;;
14316;SDS011;7242;50.858;6.586;2023-06-22T12:31:41;11.60;;;10.40;;
14316;SDS011;7242;50.858;6.586;2023-06-22T12:34:42;12.97;;;10.90;;
14316;SDS011;7242;50.858;6.586;2023-06-22T12:37:43;12.20;;;11.00;;
14316;SDS011;7242;50.858;6.586;2023-06-22T12:40:44;11.87;;;10.77;;
14316;SDS011;7242;50.858;6.586;2023-06-22T12:43:47;12.47;;;11.13;;
14316;SDS011;7242;50.858;6.586;2023-06-22T12:46:48;12.70;;;10.27;;
14316;SDS011;7242;50.858;6.586;2023-06-22T12:49:49;11.67;;;10.47;;
14316;SDS011;7242;50.858;6.586;2023-06-22T12:52:49;11.97;;;10.80;;
14316;SDS011;7242;50.858;6.586;2023-06-22T12:55:50;12.03;;;10.33;;
14316;SDS011;7242;50.858;6.586;2023-06-22T12:58:51;13.40;;;12.03;;
14316;SDS011;7242;50.858;6.586;2023-06-22T13:01:52;13.57;;;12.17;;
14316;SDS011;7242;50.858;6.586;2023-06-22T13:04:54;15.00;;;13.50;;
14316;SDS011;7242;50.858;6.586;2023-06-22T13:07:55;15.27;;;13.87;;
14316;SDS011;7242;50.858;6.586;2023-06-22T13:10:56;14.70;;;13.30;;
14316;SDS011;7242;50.858;6.586;2023-06-22T13:13:57;15.17;;;13.67;;
14316;SDS011;7242;50.858;6.586;2023-06-22T13:16:57;14.50;;;13.00;;
14316;SDS011;7242;50.858;6.586;2023-06-22T13:19:58;16.27;;;14.83;;
14316;SDS011;7242;50.858;6.586;2023-06-22T13:22:59;16.83;;;15.17;;
14316;SDS011;7242;50.858;6.586;2023-06-22T13:26:00;14.83;;;13.43;;
14316;SDS011;7242;50.858;6.586;2023-06-22T13:29:00;15.13;;;13.70;;
14316;SDS011;7242;50.858;6.586;2023-06-22T13:32:01;14.17;;;12.87;;
14316;SDS011;7242;50.858;6.586;2023-06-22T13:35:02;14.00;;;12.63;;
14316;SDS011;7242;50.858;6.586;2023-06-22T13:38:04;13.77;;;11.50;;
14316;SDS011;7242;50.858;6.586;2023-06-22T13:41:05;10.50;;;9.50;;
14316;SDS011;7242;50.858;6.586;2023-06-22T13:44:06;9.37;;;8.67;;
14316;SDS011;7242;50.858;6.586;2023-06-22T13:47:07;9.83;;;8.93;;
14316;SDS011;7242;50.858;6.586;2023-06-22T13:50:08;9.80;;;8.70;;
14316;SDS011;7242;50.858;6.586;2023-06-22T13:53:09;10.57;;;9.57;;
14316;SDS011;7242;50.858;6.586;2023-06-22T13:56:10;10.73;;;9.63;;
14316;SDS011;7242;50.858;6.586;2023-06-22T13:59:10;10.10;;;9.10;;
14316;SDS011;7242;50.858;6.586;2023-06-22T14:02:12;9.27;;;8.47;;
14316;SDS011;7242;50.858;6.586;2023-06-22T14:05:13;10.33;;;9.33;;
14316;SDS011;7242;50.858;6.586;2023-06-22T14:08:14;9.33;;;8.43;;
14316;SDS011;7242;50.858;6.586;2023-06-22T14:11:15;9.53;;;8.57;;
14316;SDS011;7242;50.858;6.586;2023-06-22T14:14:15;10.10;;;7.90;;
14316;SDS011;7242;50.858;6.586;2023-06-22T14:17:17;8.47;;;7.63;;
14316;SDS011;7242;50.858;6.586;2023-06-22T14:20:17;8.30;;;7.50;;
14316;SDS011;7242;50.858;6.586;2023-06-22T14:23:19;7.73;;;7.13;;
14316;SDS011;7242;50.858;6.586;2023-06-22T14:26:19;9.93;;;9.00;;
14316;SDS011;7242;50.858;6.586;2023-06-22T14:29:20;10.10;;;8.50;;
14316;SDS011;7242;50.858;6.586;2023-06-22T14:32:27;10.87;;;8.20;;
14316;SDS011;7242;50.858;6.586;2023-06-22T14:35:29;9.47;;;8.53;;
14316;SDS011;7242;50.858;6.586;2023-06-22T14:38:30;12.20;;;11.00;;
14316;SDS011;7242;50.858;6.586;2023-06-22T14:41:31;11.87;;;10.77;;
14316;SDS011;7242;50.858;6.586;2023-06-22T14:44:33;14.67;;;13.10;;
14316;SDS011;7242;50.858;6.586;2023-06-22T14:47:34;14.53;;;13.23;;
14316;SDS011;7242;50.858;6.586;2023-06-22T14:50:34;15.47;;;13.87;;
14316;SDS011;7242;50.858;6.586;2023-06-22T14:53:36;17.03;;;15.43;;
14316;SDS011;7242;50.858;6.586;2023-06-22T14:56:37;17.83;;;16.20;;
14316;SDS011;7242;50.858;6.586;2023-06-22T14:59:38;20.63;;;18.73;;
14316;SDS011;7242;50.858;6.586;2023-06-22T15:02:38;18.83;;;17.03;;
14316;SDS011;7242;50.858;6.586;2023-06-22T15:05:41;20.63;;;18.63;;
14316;SDS011;7242;50.858;6.586;2023-06-22T15:08:42;21.93;;;19.63;;
14316;SDS011;7242;50.858;6.586;2023-06-22T15:11:43;20.80;;;18.80;;
14316;SDS011;7242;50.858;6.586;2023-06-22T15:14:43;19.13;;;17.33;;
14316;SDS011;7242;50.858;6.586;2023-06-22T15:17:45;18.83;;;17.13;;
14316;SDS011;7242;50.858;6.586;2023-06-22T15:20:45;20.50;;;18.50;;
14316;SDS011;7242;50.858;6.586;2023-06-22T15:23:48;20.93;;;18.80;;
14316;SDS011;7242;50.858;6.586;2023-06-22T15:26:49;23.27;;;21.00;;
14316;SDS011;7242;50.858;6.586;2023-06-22T15:29:50;21.57;;;19.60;;
14316;SDS011;7242;50.858;6.586;2023-06-22T15:32:51;20.53;;;18.53;;
14316;SDS011;7242;50.858;6.586;2023-06-22T15:35:52;26.00;;;23.30;;
14316;SDS011;7242;50.858;6.586;2023-06-22T15:38:54;42.40;;;27.67;;
14316;SDS011;7242;50.858;6.586;2023-06-22T15:41:55;30.57;;;27.27;;
14316;SDS011;7242;50.858;6.586;2023-06-22T15:44:57;36.93;;;28.30;;
14316;SDS011;7242;50.858;6.586;2023-06-22T15:47:57;29.17;;;23.60;;
14316;SDS011;7242;50.858;6.586;2023-06-22T15:50:58;23.40;;;20.87;;
14316;SDS011;7242;50.858;6.586;2023-06-22T15:54:00;26.23;;;23.13;;
14316;SDS011;7242;50.858;6.586;2023-06-22T15:57:01;19.20;;;17.30;;
14316;SDS011;7242;50.858;6.586;2023-06-22T16:00:02;16.67;;;14.93;;
14316;SDS011;7242;50.858;6.586;2023-06-22T16:03:07;12.97;;;11.57;;
14316;SDS011;7242;50.858;6.586;2023-06-22T16:06:08;11.07;;;9.87;;
14316;SDS011;7242;50.858;6.586;2023-06-22T16:09:09;7.87;;;7.07;;
14316;SDS011;7242;50.858;6.586;2023-06-22T16:12:10;9.70;;;8.70;;
14316;SDS011;7242;50.858;6.586;2023-06-22T16:15:11;22.37;;;18.53;;
14316;SDS011;7242;50.858;6.586;2023-06-22T16:18:12;27.77;;;23.03;;
14316;SDS011;7242;50.858;6.586;2023-06-22T16:21:13;20.53;;;18.47;;
14316;SDS011;7242;50.858;6.586;2023-06-22T16:24:14;20.70;;;18.50;;
14316;SDS011;7242;50.858;6.586;2023-06-22T16:27:15;13.97;;;11.97;;
14316;SDS011;7242;50.858;6.586;2023-06-22T16:30:16;15.50;;;13.90;;
14316;SDS011;7242;50.858;6.586;2023-06-22T16:33:17;13.53;;;11.37;;
14316;SDS011;7242;50.858;6.586;2023-06-22T16:36:19;7.07;;;6.37;;
14316;SDS011;7242;50.858;6.586;2023-06-22T16:39:20;6.70;;;5.97;;
14316;SDS011;7242;50.858;6.586;2023-06-22T16:42:21;5.60;;;5.10;;
14316;SDS011;7242;50.858;6.586;2023-06-22T16:45:22;5.73;;;5.23;;
14316;SDS011;7242;50.858;6.586;2023-06-22T16:48:23;6.33;;;5.73;;
14316;SDS011;7242;50.858;6.586;2023-06-22T16:51:23;7.77;;;6.17;;
14316;SDS011;7242;50.858;6.586;2023-06-22T16:54:24;8.23;;;7.40;;
14316;SDS011;7242;50.858;6.586;2023-06-22T16:57:25;8.63;;;7.83;;
14316;SDS011;7242;50.858;6.586;2023-06-22T17:00:26;10.67;;;8.97;;
14316;SDS011;7242;50.858;6.586;2023-06-22T17:03:28;14.37;;;13.07;;
14316;SDS011;7242;50.858;6.586;2023-06-22T17:06:29;17.90;;;16.30;;
14316;SDS011;7242;50.858;6.586;2023-06-22T17:09:31;19.10;;;17.40;;
14316;SDS011;7242;50.858;6.586;2023-06-22T17:12:34;18.10;;;16.53;;
14316;SDS011;7242;50.858;6.586;2023-06-22T17:15:34;18.97;;;17.30;;
14316;SDS011;7242;50.858;6.586;2023-06-22T17:18:37;18.37;;;16.77;;
14316;SDS011;7242;50.858;6.586;2023-06-22T17:21:39;21.50;;;19.57;;
14316;SDS011;7242;50.858;6.586;2023-06-22T17:24:42;23.47;;;21.20;;
14316;SDS011;7242;50.858;6.586;2023-06-22T17:27:46;23.63;;;21.43;;
14316;SDS011;7242;50.858;6.586;2023-06-22T17:31:06;24.87;;;22.80;;
14316;SDS011;7242;50.858;6.586;2023-06-22T17:34:12;30.10;;;27.30;;
14316;SDS011;7242;50.858;6.586;2023-06-22T17:37:15;32.77;;;29.80;;
14316;SDS011;7242;50.858;6.586;2023-06-22T17:40:16;30.13;;;27.23;;
14316;SDS011;7242;50.858;6.586;2023-06-22T17:43:18;36.70;;;33.10;;
14316;SDS011;7242;50.858;6.586;2023-06-22T17:46:20;34.17;;;30.97;;
14316;SDS011;7242;50.858;6.586;2023-06-22T17:49:26;35.40;;;32.00;;
14316;SDS011;7242;50.858;6.586;2023-06-22T17:52:29;36.50;;;33.10;;
14316;SDS011;7242;50.858;6.586;2023-06-22T17:55:30;35.83;;;32.30;;
14316;SDS011;7242;50.858;6.586;2023-06-22T17:58:33;36.67;;;33.17;;
14316;SDS011;7242;50.858;6.586;2023-06-22T18:01:35;32.73;;;29.80;;
14316;SDS011;7242;50.858;6.586;2023-06-22T18:04:37;38.10;;;34.47;;
14316;SDS011;7242;50.858;6.586;2023-06-22T18:07:38;40.47;;;36.57;;
14316;SDS011;7242;50.858;6.586;2023-06-22T18:10:40;41.47;;;37.63;;
14316;SDS011;7242;50.858;6.586;2023-06-22T18:13:42;39.40;;;35.60;;
14316;SDS011;7242;50.858;6.586;2023-06-22T18:16:44;33.27;;;30.20;;
14316;SDS011;7242;50.858;6.586;2023-06-22T18:19:45;37.30;;;33.60;;
14316;SDS011;7242;50.858;6.586;2023-06-22T18:22:48;34.00;;;30.77;;
14316;SDS011;7242;50.858;6.586;2023-06-22T18:25:49;25.27;;;23.17;;